KLXV

Details ICAO KLXV
Name LAKE CO
Region United States
Timezone America/Denver (UTC-7.0)
Plans Departing 13
Arriving 13
Stats Elevation 9,927 ft / 3,026 m (AMSL)
Location 39.219467° -106.316445°
Runways 1
Magnetic Variation 8.831° E
Sunrise 2017-12-12 14:17:07 UTC / 2017-12-12 07:17:07 Local
Sunset 2017-12-12 23:44:00 UTC / 2017-12-12 16:44:00 Local
Advertisement - Login to hide

Runways

ID Width Length Bearing (true) Bearing (mag) Surface Threshold Offset Overrun Length
16 75 ft / 23 m 6,411 ft / 1,954 m 170.29° 161.46° Asphalt 0 ft / 0 m 200 ft / 61 m
34 75 ft / 23 m 6,411 ft / 1,954 m 350.30° 341.47° Asphalt 0 ft / 0 m 0 ft / 0 m

Map

Weather


0- 5 10 15 20 25 30 35+ Temperature / ° C

Clouds and Precipitation
Forecast for 2017-12-12 12:00 UTC. Updated an hour ago

Ground ~20,000 ft ~40,000 ft Winds

METAR

KLXV 120753Z AUTO 04005KT 10SM CLR M06/M13 A3056 RMK AO2 SLP295 T10611128

TAF

Not found

Frequencies

Recorded 118.37 MHz ASOS
Unicom 122.80 MHz CTAF/UNICOM
Warning: Do not use this data for real-world aviation or navigation. No guarantee of current accuracy is given.